General Aviation Weather

Text Reports

Enter one or more of the following location identifiers separated by a space:

Zip Code, Four-Character ICAO or Three-Character IATA airport codes.

METAR - Aviation Routine Weather Report
KJWG - Watonga, Oklahoma
Updated at 10:15 AM GMT on September 15, 2014 (5:15 AM CDT):
METAR KJWG 151015Z AUTO 18007KT 10SM CLR 20/19 A3011 RMK AO2 T01950194
TAF - Terminal Area Forecast
KJWG - Watonga, Oklahoma
Updated at 10:15 AM GMT on September 15, 2014 (5:15 AM CDT):
No TAF is currently available for this location.
Decoded:
No decoded TAF is available.
PIREP - Pilot Weather Report
KJWG - Watonga, Oklahoma
Updated at 10:15 AM GMT on September 15, 2014 (5:15 AM CDT):
No PIREP is currently available for this location.
AIRMET - Airmens Meteorological Information
KJWG - Watonga, Oklahoma
Updated at 10:15 AM GMT on September 15, 2014 (5:15 AM CDT):
No AIRMET is currently available for this location.
SIGMET - Significant Meteorological Information
KJWG - Watonga, Oklahoma
Updated at 10:15 AM GMT on September 15, 2014 (5:15 AM CDT):
No SIGMET is currently available for this location.
NOTAM - Notice to Airmen
KJWG - Watonga, Oklahoma
Updated at 10:15 AM GMT on September 15, 2014 (5:15 AM CDT):
No NOTAM is currently available for this location.
Forecast Area
KJWG - Watonga, Oklahoma
Updated at 10:15 AM GMT on September 15, 2014 (5:15 AM CDT):
No NOTAM is currently available for this location.
Aviation Weather Maps